createdAt,value
2023-05-11T00:02:14.166Z,19.74
2023-05-11T00:04:41.462Z,19.77
2023-05-11T00:07:08.426Z,19.77
2023-05-11T00:09:35.833Z,19.73
2023-05-11T00:12:02.953Z,19.71
2023-05-11T00:14:29.920Z,19.70
2023-05-11T00:16:56.724Z,19.68
2023-05-11T00:19:23.527Z,19.70
2023-05-11T00:21:50.403Z,19.67
2023-05-11T00:24:17.230Z,19.63
2023-05-11T00:26:44.037Z,19.59
2023-05-11T00:29:10.862Z,19.50
2023-05-11T00:31:37.824Z,19.45
2023-05-11T00:34:04.561Z,19.42
2023-05-11T00:36:31.428Z,19.44
2023-05-11T00:38:58.269Z,19.44
2023-05-11T00:41:25.448Z,19.48
2023-05-11T00:43:52.292Z,19.49
2023-05-11T00:46:19.205Z,19.53
2023-05-11T00:48:46.277Z,19.55
2023-05-11T00:51:13.779Z,19.53
2023-05-11T00:53:40.917Z,19.56
2023-05-11T00:56:08.709Z,19.57
2023-05-11T00:58:36.150Z,19.43
2023-05-11T01:01:03.127Z,19.44
2023-05-11T01:03:30.181Z,19.37
2023-05-11T01:06:27.752Z,19.35
2023-05-11T01:09:06.563Z,19.28
2023-05-11T01:11:46.407Z,19.34
2023-05-11T01:14:21.150Z,19.31
2023-05-11T01:16:54.029Z,19.31
2023-05-11T01:19:33.959Z,19.33
2023-05-11T01:22:08.456Z,19.32
2023-05-11T01:24:59.845Z,19.27
2023-05-11T01:28:04.110Z,19.18
2023-05-11T01:30:51.311Z,19.10
2023-05-11T01:33:26.258Z,18.92
2023-05-11T01:35:56.776Z,18.92
2023-05-11T01:38:28.953Z,18.70
2023-05-11T01:40:59.549Z,18.61
2023-05-11T01:43:28.919Z,18.57
2023-05-11T01:46:00.487Z,18.42
2023-05-11T01:48:31.415Z,18.48
2023-05-11T01:51:01.438Z,18.33
2023-05-11T01:53:34.778Z,18.23
2023-05-11T01:56:03.924Z,18.17
2023-05-11T01:58:32.350Z,18.17
2023-05-11T02:01:03.245Z,18.03
2023-05-11T02:03:35.516Z,17.94
2023-05-11T02:06:05.464Z,17.82
2023-05-11T02:08:34.254Z,17.75
2023-05-11T02:11:03.125Z,17.86
2023-05-11T02:13:30.826Z,17.93
2023-05-11T02:15:59.663Z,18.00
2023-05-11T02:18:28.459Z,18.00
2023-05-11T02:20:59.977Z,17.94
2023-05-11T02:23:27.947Z,17.86
2023-05-11T02:25:56.930Z,17.98
2023-05-11T02:28:24.400Z,17.99
2023-05-11T02:30:59.577Z,18.01
2023-05-11T02:33:35.256Z,17.92
2023-05-11T02:36:03.561Z,17.98
2023-05-11T02:38:34.653Z,18.01
2023-05-11T02:41:11.866Z,17.94
2023-05-11T02:43:44.808Z,17.89
2023-05-11T02:46:17.308Z,17.85
2023-05-11T02:48:49.711Z,17.87
2023-05-11T02:51:21.326Z,17.83
2023-05-11T02:53:53.064Z,17.81
2023-05-11T02:56:22.049Z,17.73
2023-05-11T02:58:51.129Z,17.62
2023-05-11T03:01:22.645Z,17.66
2023-05-11T03:03:49.858Z,17.66
2023-05-11T03:06:17.043Z,17.59
2023-05-11T03:08:44.372Z,17.78
2023-05-11T03:11:14.832Z,17.78
2023-05-11T03:13:45.669Z,17.71
2023-05-11T03:16:14.995Z,17.76
2023-05-11T03:18:43.152Z,17.89
2023-05-11T03:21:10.057Z,18.03
2023-05-11T03:23:39.716Z,18.12
2023-05-11T03:26:07.497Z,18.14
2023-05-11T03:28:38.826Z,18.10
2023-05-11T03:31:07.923Z,18.15
2023-05-11T03:33:35.254Z,18.20
2023-05-11T03:36:05.791Z,18.10
2023-05-11T03:38:36.101Z,18.01
2023-05-11T03:41:03.263Z,18.04
2023-05-11T03:43:35.123Z,18.11
2023-05-11T03:46:04.423Z,17.98
2023-05-11T03:48:32.436Z,17.74
2023-05-11T03:51:00.174Z,17.80
2023-05-11T03:53:27.204Z,17.79
2023-05-11T03:55:54.854Z,17.82
2023-05-11T03:58:22.839Z,17.85
2023-05-11T04:00:50.151Z,17.68
2023-05-11T04:03:18.248Z,17.79
2023-05-11T04:05:45.806Z,17.76
2023-05-11T04:08:13.395Z,17.78
2023-05-11T04:10:40.213Z,17.77
2023-05-11T04:13:07.047Z,17.68
2023-05-11T04:15:35.388Z,17.57
2023-05-11T04:18:03.262Z,17.60
2023-05-11T04:20:31.663Z,17.61
2023-05-11T04:22:59.282Z,17.58
2023-05-11T04:25:26.156Z,17.54
2023-05-11T04:27:53.059Z,17.41
2023-05-11T04:30:21.541Z,17.46
2023-05-11T04:32:48.593Z,17.39
2023-05-11T04:35:15.622Z,17.46
2023-05-11T04:37:42.476Z,17.42
2023-05-11T04:40:10.546Z,17.30
2023-05-11T04:42:40.474Z,17.32
2023-05-11T04:45:11.780Z,17.41
2023-05-11T04:47:38.767Z,17.46
2023-05-11T04:50:07.464Z,17.30
2023-05-11T04:52:35.649Z,17.27
2023-05-11T04:55:02.684Z,17.31
2023-05-11T04:57:29.720Z,17.27
2023-05-11T04:59:57.028Z,17.26
2023-05-11T05:02:23.839Z,17.31
2023-05-11T05:04:50.675Z,17.33
2023-05-11T05:07:17.479Z,17.48
2023-05-11T05:09:45.500Z,17.57
2023-05-11T05:12:14.434Z,17.51
2023-05-11T05:14:41.139Z,17.83
2023-05-11T05:17:08.001Z,17.94
2023-05-11T05:19:34.988Z,17.95
2023-05-11T05:22:02.126Z,17.77
2023-05-11T05:24:29.206Z,17.84
2023-05-11T05:26:55.967Z,17.91
2023-05-11T05:29:22.725Z,17.83
2023-05-11T05:31:49.545Z,17.77
2023-05-11T05:34:18.218Z,17.80
2023-05-11T05:36:45.411Z,17.68
2023-05-11T05:39:12.715Z,17.67
2023-05-11T05:41:42.609Z,17.62
2023-05-11T05:44:10.349Z,17.73
2023-05-11T05:46:38.339Z,17.57
2023-05-11T05:49:05.619Z,17.61
2023-05-11T05:51:32.841Z,17.61
2023-05-11T05:53:59.747Z,17.61
2023-05-11T05:56:27.203Z,17.62
2023-05-11T05:58:53.989Z,17.54
2023-05-11T06:01:21.980Z,17.35
2023-05-11T06:03:52.159Z,17.20
2023-05-11T06:06:19.367Z,17.17
2023-05-11T06:08:46.497Z,17.25
2023-05-11T06:11:13.332Z,17.30
2023-05-11T06:13:40.108Z,17.38
2023-05-11T06:16:07.011Z,17.29
2023-05-11T06:18:34.951Z,17.07
2023-05-11T06:21:04.639Z,17.14
2023-05-11T06:23:32.476Z,17.12
2023-05-11T06:25:59.366Z,17.13
2023-05-11T06:28:29.655Z,17.17
2023-05-11T06:30:59.767Z,17.17
2023-05-11T06:33:30.712Z,17.22
2023-05-11T06:35:58.347Z,17.40
2023-05-11T06:38:28.647Z,17.51
2023-05-11T06:40:56.408Z,17.64
2023-05-11T06:43:23.356Z,17.75
2023-05-11T06:45:52.832Z,17.83
2023-05-11T06:48:23.334Z,17.91
2023-05-11T06:50:50.199Z,17.99
2023-05-11T06:53:18.053Z,18.03
2023-05-11T06:55:45.076Z,18.11
2023-05-11T06:58:12.085Z,18.18
2023-05-11T07:00:39.459Z,18.24
2023-05-11T07:03:06.880Z,18.33
2023-05-11T07:05:34.048Z,18.39
2023-05-11T07:08:00.849Z,18.48
2023-05-11T07:10:27.653Z,18.55
2023-05-11T07:12:54.455Z,18.62
2023-05-11T07:15:21.205Z,18.48
2023-05-11T07:17:48.099Z,18.57
2023-05-11T07:20:15.087Z,18.52
2023-05-11T07:22:41.989Z,18.50
2023-05-11T07:25:09.838Z,18.52
2023-05-11T07:27:36.799Z,18.57
2023-05-11T07:30:04.834Z,18.71
2023-05-11T07:32:32.652Z,18.81
2023-05-11T07:34:59.435Z,18.88
2023-05-11T07:37:26.141Z,18.89
2023-05-11T07:39:54.411Z,18.90
2023-05-11T07:42:21.267Z,18.97
2023-05-11T07:44:48.034Z,18.89
2023-05-11T07:47:14.855Z,18.83
2023-05-11T07:49:43.790Z,18.97
2023-05-11T07:52:11.736Z,19.08
2023-05-11T07:54:40.260Z,19.19
2023-05-11T07:57:07.896Z,19.16
2023-05-11T07:59:34.768Z,19.35
2023-05-11T08:02:01.797Z,19.32
2023-05-11T08:04:30.157Z,19.46
2023-05-11T08:06:56.949Z,19.58
2023-05-11T08:09:23.739Z,19.70
2023-05-11T08:11:50.589Z,19.77
2023-05-11T08:14:17.929Z,19.83
2023-05-11T08:16:44.855Z,19.87
2023-05-11T08:19:13.150Z,19.91
2023-05-11T08:21:40.372Z,19.97
2023-05-11T08:24:07.511Z,20.01
2023-05-11T08:26:34.386Z,19.87
2023-05-11T08:29:01.189Z,19.80
2023-05-11T08:31:28.082Z,19.93
2023-05-11T08:33:55.052Z,20.01
2023-05-11T08:36:22.097Z,20.28
2023-05-11T08:38:48.841Z,20.39
2023-05-11T08:41:15.678Z,20.57
2023-05-11T08:43:45.747Z,20.65
2023-05-11T08:46:17.887Z,20.58
2023-05-11T08:48:45.160Z,20.56
2023-05-11T08:51:12.127Z,20.53
2023-05-11T08:53:39.360Z,20.55
2023-05-11T08:56:08.587Z,20.56
2023-05-11T08:58:37.522Z,20.55
2023-05-11T09:01:06.558Z,20.41
2023-05-11T09:03:35.862Z,20.23
2023-05-11T09:06:05.650Z,20.21
2023-05-11T09:08:35.898Z,20.18
2023-05-11T09:11:03.975Z,20.22
2023-05-11T09:13:32.073Z,20.07
2023-05-11T09:15:59.479Z,20.22
2023-05-11T09:18:26.943Z,20.33
2023-05-11T09:20:53.968Z,20.34
2023-05-11T09:23:27.292Z,20.21
2023-05-11T09:25:54.673Z,20.21
2023-05-11T09:28:26.031Z,20.04
2023-05-11T09:30:53.857Z,20.02
2023-05-11T09:33:25.844Z,19.98
2023-05-11T09:35:53.208Z,20.01
2023-05-11T09:38:20.692Z,20.02
2023-05-11T09:40:53.113Z,20.16
2023-05-11T09:43:28.400Z,20.21
2023-05-11T09:45:57.164Z,20.24
2023-05-11T09:48:30.217Z,20.37
2023-05-11T09:51:16.277Z,20.47
2023-05-11T09:53:46.262Z,20.45
2023-05-11T09:56:14.116Z,20.56
2023-05-11T09:58:57.345Z,20.67
2023-05-11T10:01:32.913Z,20.66
2023-05-11T10:04:21.445Z,20.76
2023-05-11T10:06:53.406Z,20.88
2023-05-11T10:09:25.545Z,20.99
2023-05-11T10:11:53.702Z,21.13
2023-05-11T10:14:22.200Z,21.15
2023-05-11T10:16:49.487Z,21.20
2023-05-11T10:19:17.405Z,21.32
2023-05-11T10:21:44.955Z,21.19
2023-05-11T10:24:13.873Z,21.25
2023-05-11T10:26:41.185Z,21.38
2023-05-11T10:29:08.170Z,21.38
2023-05-11T10:31:36.759Z,21.42
2023-05-11T10:34:04.510Z,21.30
2023-05-11T10:36:31.205Z,21.36
2023-05-11T10:38:57.960Z,21.29
2023-05-11T10:41:43.238Z,21.43
2023-05-11T10:44:40.703Z,21.44
2023-05-11T10:47:42.328Z,21.05
2023-05-11T10:50:46.714Z,21.01
2023-05-11T10:53:19.170Z,20.97
2023-05-11T10:56:06.297Z,20.88
2023-05-11T10:58:54.890Z,20.98
2023-05-11T11:01:30.575Z,21.10
2023-05-11T11:04:03.097Z,21.35
2023-05-11T11:06:31.548Z,21.59
2023-05-11T11:09:04.455Z,21.41
2023-05-11T11:11:32.754Z,21.42
2023-05-11T11:14:02.954Z,21.48
2023-05-11T11:16:30.497Z,21.41
2023-05-11T11:19:31.309Z,21.71
2023-05-11T11:22:02.587Z,21.71
2023-05-11T11:24:41.141Z,21.76
2023-05-11T11:27:09.560Z,21.72
2023-05-11T11:29:37.321Z,21.69
2023-05-11T11:32:25.563Z,21.63
2023-05-11T11:34:52.554Z,21.63
2023-05-11T11:37:20.495Z,21.82
2023-05-11T11:39:50.318Z,21.91
2023-05-11T11:42:18.552Z,21.98
2023-05-11T11:44:46.543Z,22.01
2023-05-11T11:47:26.258Z,21.89
2023-05-11T11:49:55.203Z,22.02
2023-05-11T11:52:28.004Z,21.97
2023-05-11T11:54:56.488Z,22.04
2023-05-11T11:57:35.758Z,22.07
2023-05-11T12:00:10.634Z,21.95
2023-05-11T12:02:42.664Z,22.06
2023-05-11T12:05:22.326Z,21.99
2023-05-11T12:07:52.320Z,21.99
2023-05-11T12:10:21.779Z,21.98
2023-05-11T12:12:55.194Z,22.02
2023-05-11T12:15:27.218Z,21.87
2023-05-11T12:17:54.176Z,22.07
2023-05-11T12:20:21.767Z,21.90
2023-05-11T12:22:49.447Z,21.82
2023-05-11T12:25:18.124Z,21.85
2023-05-11T12:27:58.472Z,21.99
2023-05-11T12:30:30.754Z,21.80
2023-05-11T12:32:59.897Z,21.93
2023-05-11T12:35:35.763Z,21.94
2023-05-11T12:38:02.952Z,21.94
2023-05-11T12:40:30.942Z,22.00
2023-05-11T12:42:59.389Z,22.14
2023-05-11T12:45:27.125Z,22.14
2023-05-11T12:47:55.447Z,22.07
2023-05-11T12:50:23.003Z,22.06
2023-05-11T12:52:50.468Z,22.22
2023-05-11T12:55:28.165Z,22.09
2023-05-11T12:58:07.989Z,22.07
2023-05-11T13:00:36.979Z,22.01
2023-05-11T13:03:05.452Z,22.13
2023-05-11T13:05:32.340Z,21.98
2023-05-11T13:08:05.285Z,22.00
2023-05-11T13:10:32.389Z,21.82
2023-05-11T13:12:59.406Z,21.63
2023-05-11T13:15:28.764Z,21.83
2023-05-11T13:18:05.537Z,21.77
2023-05-11T13:20:34.013Z,21.68
2023-05-11T13:23:08.942Z,21.65
2023-05-11T13:25:54.333Z,21.36
2023-05-11T13:28:24.277Z,21.25
2023-05-11T13:30:52.518Z,21.27
2023-05-11T13:33:19.809Z,21.40
2023-05-11T13:35:46.712Z,21.47
2023-05-11T13:38:13.581Z,21.56
2023-05-11T13:40:40.497Z,21.53
2023-05-11T13:43:07.582Z,21.43
2023-05-11T13:45:36.347Z,21.17
2023-05-11T13:48:03.603Z,21.21
2023-05-11T13:50:30.777Z,21.41
2023-05-11T13:52:57.601Z,21.16
2023-05-11T13:55:24.481Z,21.36
2023-05-11T13:57:51.524Z,21.45
2023-05-11T14:00:19.768Z,21.52
2023-05-11T14:02:48.299Z,21.41
2023-05-11T14:05:15.185Z,21.63
2023-05-11T14:07:47.155Z,21.47
2023-05-11T14:10:15.943Z,21.46
2023-05-11T14:12:43.325Z,21.43
2023-05-11T14:15:11.306Z,21.49
2023-05-11T14:17:40.625Z,21.58
2023-05-11T14:20:08.102Z,21.60
2023-05-11T14:22:34.822Z,21.73
2023-05-11T14:25:01.959Z,21.53
2023-05-11T14:27:28.870Z,21.84
2023-05-11T14:29:55.791Z,21.87
2023-05-11T14:32:22.707Z,21.77
2023-05-11T14:34:49.510Z,21.68
2023-05-11T14:37:16.453Z,21.69
2023-05-11T14:39:44.084Z,21.74
2023-05-11T14:42:10.860Z,21.30
2023-05-11T14:44:39.249Z,20.95
2023-05-11T14:47:07.674Z,21.18
2023-05-11T14:49:34.454Z,21.11
2023-05-11T14:52:01.163Z,21.12
2023-05-11T14:54:27.946Z,21.14
2023-05-11T14:56:56.634Z,20.96
2023-05-11T14:59:24.420Z,20.92
2023-05-11T15:01:51.159Z,20.79
2023-05-11T15:04:19.554Z,20.65
2023-05-11T15:06:46.572Z,20.87
2023-05-11T15:09:13.626Z,20.98
2023-05-11T15:11:40.636Z,20.92
2023-05-11T15:14:07.510Z,20.99
2023-05-11T15:16:34.470Z,21.11
2023-05-11T15:19:01.327Z,21.29
2023-05-11T15:21:28.237Z,21.43
2023-05-11T15:23:55.073Z,21.75
2023-05-11T15:26:22.839Z,21.84
2023-05-11T15:28:49.973Z,21.99
2023-05-11T15:31:16.942Z,22.09
2023-05-11T15:33:44.716Z,22.21
2023-05-11T15:36:13.175Z,22.37
2023-05-11T15:38:40.347Z,22.31
2023-05-11T15:41:07.986Z,22.30
2023-05-11T15:43:34.977Z,22.34
2023-05-11T15:46:03.772Z,22.14
2023-05-11T15:48:30.792Z,22.36
2023-05-11T15:50:59.772Z,22.30
2023-05-11T15:53:27.004Z,22.22
2023-05-11T15:55:55.612Z,22.48
2023-05-11T15:58:23.108Z,22.28
2023-05-11T16:00:50.057Z,22.39
2023-05-11T16:03:17.482Z,22.26
2023-05-11T16:05:45.512Z,22.31
2023-05-11T16:08:13.128Z,22.20
2023-05-11T16:10:40.304Z,22.15
2023-05-11T16:13:07.645Z,22.29
2023-05-11T16:15:34.407Z,22.17
2023-05-11T16:18:04.628Z,22.24
2023-05-11T16:20:32.438Z,22.21
2023-05-11T16:22:59.215Z,22.33
2023-05-11T16:25:26.131Z,22.01
2023-05-11T16:27:52.863Z,21.92
2023-05-11T16:30:24.985Z,21.81
2023-05-11T16:32:52.357Z,21.97
2023-05-11T16:35:19.363Z,21.84
2023-05-11T16:37:47.814Z,21.83
2023-05-11T16:40:15.301Z,21.71
2023-05-11T16:42:42.470Z,21.58
2023-05-11T16:45:09.778Z,21.47
2023-05-11T16:47:36.509Z,21.42
2023-05-11T16:50:03.737Z,21.65
2023-05-11T16:52:30.632Z,21.62
2023-05-11T16:54:58.916Z,21.64
2023-05-11T16:57:26.799Z,21.63
2023-05-11T16:59:53.580Z,21.55
2023-05-11T17:02:21.235Z,21.57
2023-05-11T17:04:48.121Z,21.47
2023-05-11T17:07:16.068Z,21.48
2023-05-11T17:09:43.131Z,21.43
2023-05-11T17:12:13.188Z,21.53
2023-05-11T17:14:39.938Z,21.32
2023-05-11T17:17:08.154Z,21.33
2023-05-11T17:19:35.018Z,21.46
2023-05-11T17:22:01.813Z,21.46
2023-05-11T17:24:28.678Z,21.55
2023-05-11T17:26:55.669Z,21.40
2023-05-11T17:29:22.892Z,21.33
2023-05-11T17:31:51.654Z,21.07
2023-05-11T17:34:19.193Z,20.90
2023-05-11T17:36:46.253Z,20.91
2023-05-11T17:39:13.221Z,20.62
2023-05-11T17:41:40.060Z,20.53
2023-05-11T17:44:06.823Z,20.44
2023-05-11T17:46:34.456Z,20.53
2023-05-11T17:49:01.710Z,20.45
2023-05-11T17:51:29.111Z,20.30
2023-05-11T17:53:56.295Z,20.31
2023-05-11T17:56:23.450Z,20.30
2023-05-11T17:58:51.654Z,20.26
2023-05-11T18:01:19.660Z,20.22
2023-05-11T18:03:46.883Z,20.20
2023-05-11T18:06:13.932Z,20.15
2023-05-11T18:08:40.928Z,20.03
2023-05-11T18:11:10.142Z,20.03
2023-05-11T18:13:36.950Z,19.99
2023-05-11T18:16:04.188Z,19.92
2023-05-11T18:18:31.980Z,19.83
2023-05-11T18:21:03.838Z,19.77
2023-05-11T18:23:30.682Z,19.78
2023-05-11T18:25:57.394Z,19.73
2023-05-11T18:28:24.130Z,19.73
2023-05-11T18:30:50.927Z,19.78
2023-05-11T18:33:17.785Z,19.84
2023-05-11T18:35:44.472Z,19.77
2023-05-11T18:38:11.230Z,19.78
2023-05-11T18:40:37.965Z,19.63
2023-05-11T18:43:04.884Z,19.62
2023-05-11T18:45:34.858Z,19.67
2023-05-11T18:48:02.649Z,19.71
2023-05-11T18:50:29.924Z,19.66
2023-05-11T18:52:57.222Z,19.65
2023-05-11T18:55:24.426Z,19.57
2023-05-11T18:57:52.072Z,19.69
2023-05-11T19:00:20.563Z,19.62
2023-05-11T19:02:48.380Z,19.67
2023-05-11T19:05:15.434Z,19.66
2023-05-11T19:07:42.148Z,19.69
2023-05-11T19:10:09.401Z,19.52
2023-05-11T19:12:37.282Z,19.51
2023-05-11T19:15:04.456Z,19.53
2023-05-11T19:17:31.294Z,19.50
2023-05-11T19:19:58.077Z,19.43
2023-05-11T19:22:24.925Z,19.42
2023-05-11T19:24:51.763Z,19.34
2023-05-11T19:27:18.556Z,19.38
2023-05-11T19:29:45.320Z,19.30
2023-05-11T19:32:12.149Z,19.25
2023-05-11T19:34:38.906Z,19.37
2023-05-11T19:37:07.028Z,19.38
2023-05-11T19:39:33.749Z,19.39
2023-05-11T19:42:00.682Z,19.45
2023-05-11T19:44:28.504Z,19.30
2023-05-11T19:46:55.244Z,19.45
2023-05-11T19:49:21.944Z,19.41
2023-05-11T19:51:48.722Z,19.49
2023-05-11T19:54:15.931Z,19.51
2023-05-11T19:56:42.707Z,19.47
2023-05-11T19:59:09.467Z,19.46
2023-05-11T20:01:36.296Z,19.24
2023-05-11T20:04:03.274Z,19.08
2023-05-11T20:06:30.104Z,18.92
2023-05-11T20:08:57.030Z,18.96
2023-05-11T20:11:25.312Z,18.99
2023-05-11T20:13:53.504Z,18.95
2023-05-11T20:16:20.377Z,18.99
2023-05-11T20:18:47.415Z,18.85
2023-05-11T20:21:14.200Z,18.82
2023-05-11T20:23:40.945Z,18.82
2023-05-11T20:26:07.800Z,18.86
2023-05-11T20:28:34.605Z,18.83
2023-05-11T20:31:01.698Z,18.72
2023-05-11T20:35:59.050Z,18.77
2023-05-11T20:38:25.809Z,18.75
2023-05-11T20:40:58.662Z,18.75
2023-05-11T20:43:29.503Z,18.70
2023-05-11T20:46:03.155Z,18.75
2023-05-11T20:48:39.629Z,18.65
2023-05-11T20:51:07.746Z,18.57
2023-05-11T20:53:34.569Z,18.55
2023-05-11T20:56:02.898Z,18.54
2023-05-11T20:58:31.709Z,18.52
2023-05-11T21:00:58.614Z,18.42
2023-05-11T21:03:26.850Z,18.26
2023-05-11T21:05:53.955Z,18.19
2023-05-11T21:08:20.780Z,18.25
2023-05-11T21:10:47.760Z,18.19
2023-05-11T21:13:14.633Z,18.07
2023-05-11T21:15:41.483Z,17.98
2023-05-11T21:18:08.507Z,18.05
2023-05-11T21:20:36.081Z,17.93
2023-05-11T21:23:03.833Z,17.91
2023-05-11T21:25:30.905Z,17.88
2023-05-11T21:27:57.734Z,18.00
2023-05-11T21:30:24.536Z,17.84
2023-05-11T21:32:51.458Z,18.00
2023-05-11T21:35:18.688Z,17.98
2023-05-11T21:37:49.437Z,17.91
2023-05-11T21:40:18.032Z,17.94
2023-05-11T21:42:45.231Z,18.08
2023-05-11T21:45:12.341Z,18.10
2023-05-11T21:47:39.527Z,18.20
2023-05-11T21:50:08.607Z,18.22
2023-05-11T21:52:36.220Z,18.01
2023-05-11T21:55:03.029Z,17.57
2023-05-11T21:57:30.080Z,17.52
2023-05-11T21:59:56.929Z,17.63
2023-05-11T22:02:23.845Z,17.62
2023-05-11T22:04:50.610Z,17.56
2023-05-11T22:07:17.667Z,17.60
2023-05-11T22:09:44.496Z,17.60
2023-05-11T22:12:11.862Z,17.55
2023-05-11T22:14:38.607Z,17.49
2023-05-11T22:17:05.563Z,17.48
2023-05-11T22:19:33.070Z,17.59
2023-05-11T22:21:59.806Z,17.70
2023-05-11T22:24:27.278Z,17.76
2023-05-11T22:26:54.436Z,17.63
2023-05-11T22:29:21.897Z,17.67
2023-05-11T22:31:49.308Z,17.55
2023-05-11T22:34:16.288Z,17.58
2023-05-11T22:36:43.161Z,17.63
2023-05-11T22:39:11.425Z,17.66
2023-05-11T22:41:38.799Z,17.68
2023-05-11T22:44:05.950Z,17.61
2023-05-11T22:46:32.788Z,17.60
2023-05-11T22:48:59.703Z,17.66
2023-05-11T22:51:27.104Z,17.71
2023-05-11T22:53:54.804Z,17.51
2023-05-11T22:56:22.278Z,17.58
2023-05-11T22:58:50.101Z,17.62
2023-05-11T23:01:16.915Z,17.62
2023-05-11T23:03:43.742Z,17.61
2023-05-11T23:06:10.461Z,17.66
2023-05-11T23:08:37.191Z,17.60
2023-05-11T23:11:04.445Z,17.58
2023-05-11T23:13:31.201Z,17.49
2023-05-11T23:15:57.956Z,17.30
2023-05-11T23:18:25.079Z,17.34
2023-05-11T23:20:58.818Z,17.45
2023-05-11T23:23:27.463Z,17.51
2023-05-11T23:25:54.199Z,17.55
2023-05-11T23:28:35.917Z,17.64
2023-05-11T23:31:02.695Z,17.65
2023-05-11T23:33:29.452Z,17.67
2023-05-11T23:35:56.564Z,17.73
2023-05-11T23:38:23.614Z,17.69
2023-05-11T23:40:50.377Z,17.77
2023-05-11T23:43:17.121Z,17.67
2023-05-11T23:45:43.944Z,17.72
2023-05-11T23:48:11.668Z,17.52
2023-05-11T23:50:38.499Z,17.48
2023-05-11T23:53:05.319Z,17.41
2023-05-11T23:55:32.442Z,17.36
2023-05-11T23:57:59.233Z,17.25
